sensor_id;sensor_type;location;lat;lon;timestamp;P1;durP1;ratioP1;P2;durP2;ratioP2
67193;SDS011;54121;53.508;49.422;2022-12-18T00:01:05;34.75;;;18.60;;
67193;SDS011;54121;53.508;49.422;2022-12-18T00:03:40;41.25;;;24.02;;
67193;SDS011;54121;53.508;49.422;2022-12-18T00:06:06;34.20;;;20.50;;
67193;SDS011;54121;53.508;49.422;2022-12-18T00:08:34;39.90;;;18.80;;
67193;SDS011;54121;53.508;49.422;2022-12-18T00:11:04;44.00;;;25.75;;
67193;SDS011;54121;53.508;49.422;2022-12-18T00:13:37;47.75;;;25.90;;
67193;SDS011;54121;53.508;49.422;2022-12-18T00:16:04;48.40;;;25.58;;
67193;SDS011;54121;53.508;49.422;2022-12-18T00:18:32;32.67;;;18.10;;
67193;SDS011;54121;53.508;49.422;2022-12-18T00:21:00;37.20;;;19.75;;
67193;SDS011;54121;53.508;49.422;2022-12-18T00:23:31;41.47;;;24.73;;
67193;SDS011;54121;53.508;49.422;2022-12-18T00:28:26;41.63;;;24.10;;
67193;SDS011;54121;53.508;49.422;2022-12-18T00:31:26;46.58;;;25.30;;
67193;SDS011;54121;53.508;49.422;2022-12-18T00:33:47;39.63;;;23.10;;
67193;SDS011;54121;53.508;49.422;2022-12-18T00:36:15;44.03;;;24.98;;
67193;SDS011;54121;53.508;49.422;2022-12-18T00:38:43;38.67;;;22.65;;
67193;SDS011;54121;53.508;49.422;2022-12-18T00:41:11;37.63;;;21.15;;
67193;SDS011;54121;53.508;49.422;2022-12-18T00:44:00;42.35;;;22.60;;
67193;SDS011;54121;53.508;49.422;2022-12-18T00:46:27;43.70;;;22.48;;
67193;SDS011;54121;53.508;49.422;2022-12-18T00:48:53;37.90;;;23.02;;
67193;SDS011;54121;53.508;49.422;2022-12-18T00:51:19;36.63;;;21.83;;
67193;SDS011;54121;53.508;49.422;2022-12-18T00:53:46;35.83;;;17.70;;
67193;SDS011;54121;53.508;49.422;2022-12-18T00:56:12;53.63;;;14.55;;
67193;SDS011;54121;53.508;49.422;2022-12-18T00:58:39;46.10;;;21.75;;
67193;SDS011;54121;53.508;49.422;2022-12-18T01:01:06;33.25;;;14.60;;
67193;SDS011;54121;53.508;49.422;2022-12-18T01:03:33;37.80;;;21.35;;
67193;SDS011;54121;53.508;49.422;2022-12-18T01:06:05;34.63;;;20.52;;
67193;SDS011;54121;53.508;49.422;2022-12-18T01:08:32;27.58;;;16.15;;
67193;SDS011;54121;53.508;49.422;2022-12-18T01:10:59;33.13;;;18.88;;
67193;SDS011;54121;53.508;49.422;2022-12-18T01:13:26;25.63;;;15.00;;
67193;SDS011;54121;53.508;49.422;2022-12-18T01:15:53;34.03;;;19.30;;
67193;SDS011;54121;53.508;49.422;2022-12-18T01:18:19;37.25;;;19.35;;
67193;SDS011;54121;53.508;49.422;2022-12-18T01:20:46;32.88;;;21.67;;
67193;SDS011;54121;53.508;49.422;2022-12-18T01:23:12;28.65;;;17.63;;
67193;SDS011;54121;53.508;49.422;2022-12-18T01:25:39;32.58;;;18.33;;
67193;SDS011;54121;53.508;49.422;2022-12-18T01:28:05;32.97;;;18.98;;
67193;SDS011;54121;53.508;49.422;2022-12-18T01:30:31;32.15;;;16.33;;
67193;SDS011;54121;53.508;49.422;2022-12-18T01:32:58;35.90;;;20.98;;
67193;SDS011;54121;53.508;49.422;2022-12-18T01:35:24;27.05;;;14.10;;
67193;SDS011;54121;53.508;49.422;2022-12-18T01:37:54;28.88;;;16.98;;
67193;SDS011;54121;53.508;49.422;2022-12-18T01:40:20;29.25;;;17.88;;
67193;SDS011;54121;53.508;49.422;2022-12-18T01:42:51;29.13;;;18.38;;
67193;SDS011;54121;53.508;49.422;2022-12-18T01:47:48;28.52;;;18.67;;
67193;SDS011;54121;53.508;49.422;2022-12-18T01:52:49;35.70;;;22.80;;
67193;SDS011;54121;53.508;49.422;2022-12-18T01:55:19;37.05;;;24.13;;
67193;SDS011;54121;53.508;49.422;2022-12-18T01:57:49;28.88;;;18.95;;
67193;SDS011;54121;53.508;49.422;2022-12-18T02:00:20;36.63;;;24.63;;
67193;SDS011;54121;53.508;49.422;2022-12-18T02:02:47;33.53;;;25.38;;
67193;SDS011;54121;53.508;49.422;2022-12-18T02:05:16;37.05;;;24.40;;
67193;SDS011;54121;53.508;49.422;2022-12-18T02:10:31;37.55;;;22.02;;
67193;SDS011;54121;53.508;49.422;2022-12-18T02:18:50;38.00;;;21.40;;
67193;SDS011;54121;53.508;49.422;2022-12-18T02:26:53;33.40;;;21.38;;
67193;SDS011;54121;53.508;49.422;2022-12-18T02:29:24;31.23;;;18.92;;
67193;SDS011;54121;53.508;49.422;2022-12-18T02:31:56;31.80;;;17.98;;
67193;SDS011;54121;53.508;49.422;2022-12-18T02:34:25;34.22;;;21.30;;
67193;SDS011;54121;53.508;49.422;2022-12-18T02:36:54;23.20;;;12.45;;
67193;SDS011;54121;53.508;49.422;2022-12-18T02:39:22;37.97;;;20.88;;
67193;SDS011;54121;53.508;49.422;2022-12-18T02:41:52;30.83;;;15.60;;
67193;SDS011;54121;53.508;49.422;2022-12-18T02:44:19;29.38;;;16.55;;
67193;SDS011;54121;53.508;49.422;2022-12-18T02:46:49;26.08;;;15.30;;
67193;SDS011;54121;53.508;49.422;2022-12-18T02:49:21;28.27;;;17.25;;
67193;SDS011;54121;53.508;49.422;2022-12-18T02:52:01;28.55;;;15.23;;
67193;SDS011;54121;53.508;49.422;2022-12-18T03:00:00;28.25;;;17.52;;
67193;SDS011;54121;53.508;49.422;2022-12-18T03:02:39;34.22;;;19.58;;
67193;SDS011;54121;53.508;49.422;2022-12-18T03:07:41;24.30;;;13.65;;
67193;SDS011;54121;53.508;49.422;2022-12-18T03:10:13;19.10;;;9.73;;
67193;SDS011;54121;53.508;49.422;2022-12-18T03:12:43;23.67;;;13.68;;
67193;SDS011;54121;53.508;49.422;2022-12-18T03:18:01;24.23;;;13.07;;
67193;SDS011;54121;53.508;49.422;2022-12-18T03:20:31;23.27;;;14.52;;
67193;SDS011;54121;53.508;49.422;2022-12-18T03:23:08;21.88;;;14.27;;
67193;SDS011;54121;53.508;49.422;2022-12-18T03:25:39;20.10;;;10.18;;
67193;SDS011;54121;53.508;49.422;2022-12-18T03:28:19;13.77;;;7.90;;
67193;SDS011;54121;53.508;49.422;2022-12-18T03:30:47;20.75;;;14.52;;
67193;SDS011;54121;53.508;49.422;2022-12-18T03:33:21;22.80;;;13.20;;
67193;SDS011;54121;53.508;49.422;2022-12-18T03:35:53;19.63;;;10.43;;
67193;SDS011;54121;53.508;49.422;2022-12-18T03:38:19;23.40;;;12.93;;
67193;SDS011;54121;53.508;49.422;2022-12-18T03:46:11;15.15;;;9.38;;
67193;SDS011;54121;53.508;49.422;2022-12-18T03:49:07;16.50;;;10.50;;
67193;SDS011;54121;53.508;49.422;2022-12-18T03:51:42;23.15;;;15.57;;
67193;SDS011;54121;53.508;49.422;2022-12-18T03:54:13;18.85;;;13.32;;
67193;SDS011;54121;53.508;49.422;2022-12-18T03:56:43;14.73;;;9.23;;
67193;SDS011;54121;53.508;49.422;2022-12-18T03:59:17;17.23;;;12.75;;
67193;SDS011;54121;53.508;49.422;2022-12-18T04:01:46;16.58;;;10.20;;
67193;SDS011;54121;53.508;49.422;2022-12-18T04:04:15;18.67;;;12.20;;
67193;SDS011;54121;53.508;49.422;2022-12-18T04:06:43;23.95;;;9.88;;
67193;SDS011;54121;53.508;49.422;2022-12-18T04:09:13;13.55;;;8.02;;
67193;SDS011;54121;53.508;49.422;2022-12-18T04:11:43;13.70;;;10.38;;
67193;SDS011;54121;53.508;49.422;2022-12-18T04:14:09;17.20;;;10.77;;
67193;SDS011;54121;53.508;49.422;2022-12-18T04:16:36;15.20;;;10.68;;
67193;SDS011;54121;53.508;49.422;2022-12-18T04:19:03;14.43;;;11.50;;
67193;SDS011;54121;53.508;49.422;2022-12-18T04:21:30;18.27;;;12.07;;
67193;SDS011;54121;53.508;49.422;2022-12-18T04:23:56;18.70;;;12.85;;
67193;SDS011;54121;53.508;49.422;2022-12-18T04:26:23;10.95;;;7.35;;
67193;SDS011;54121;53.508;49.422;2022-12-18T04:28:49;16.80;;;11.75;;
67193;SDS011;54121;53.508;49.422;2022-12-18T04:31:16;12.27;;;9.50;;
67193;SDS011;54121;53.508;49.422;2022-12-18T04:33:42;17.20;;;11.32;;
67193;SDS011;54121;53.508;49.422;2022-12-18T04:36:09;17.08;;;10.10;;
67193;SDS011;54121;53.508;49.422;2022-12-18T04:38:35;16.70;;;10.55;;
67193;SDS011;54121;53.508;49.422;2022-12-18T04:41:02;12.85;;;9.52;;
67193;SDS011;54121;53.508;49.422;2022-12-18T04:43:28;12.35;;;8.90;;
67193;SDS011;54121;53.508;49.422;2022-12-18T04:46:01;11.68;;;8.02;;
67193;SDS011;54121;53.508;49.422;2022-12-18T04:48:31;11.05;;;8.45;;
67193;SDS011;54121;53.508;49.422;2022-12-18T04:50:59;10.60;;;8.63;;
67193;SDS011;54121;53.508;49.422;2022-12-18T04:53:25;11.02;;;7.75;;
67193;SDS011;54121;53.508;49.422;2022-12-18T04:56:01;10.63;;;8.18;;
67193;SDS011;54121;53.508;49.422;2022-12-18T04:58:36;10.15;;;6.63;;
67193;SDS011;54121;53.508;49.422;2022-12-18T05:01:03;11.50;;;6.07;;
67193;SDS011;54121;53.508;49.422;2022-12-18T05:03:30;7.95;;;6.30;;
67193;SDS011;54121;53.508;49.422;2022-12-18T05:05:57;7.15;;;5.80;;
67193;SDS011;54121;53.508;49.422;2022-12-18T05:08:23;7.25;;;5.72;;
67193;SDS011;54121;53.508;49.422;2022-12-18T05:10:57;7.60;;;5.10;;
67193;SDS011;54121;53.508;49.422;2022-12-18T05:13:28;7.65;;;4.63;;
67193;SDS011;54121;53.508;49.422;2022-12-18T05:15:55;9.25;;;6.90;;
67193;SDS011;54121;53.508;49.422;2022-12-18T05:18:22;7.25;;;5.63;;
67193;SDS011;54121;53.508;49.422;2022-12-18T05:20:52;8.20;;;6.68;;
67193;SDS011;54121;53.508;49.422;2022-12-18T05:23:19;8.40;;;6.63;;
67193;SDS011;54121;53.508;49.422;2022-12-18T05:25:50;8.13;;;6.00;;
67193;SDS011;54121;53.508;49.422;2022-12-18T05:28:25;8.13;;;6.07;;
67193;SDS011;54121;53.508;49.422;2022-12-18T05:30:54;8.63;;;7.07;;
67193;SDS011;54121;53.508;49.422;2022-12-18T05:33:25;7.15;;;6.07;;
67193;SDS011;54121;53.508;49.422;2022-12-18T05:35:59;6.93;;;5.82;;
67193;SDS011;54121;53.508;49.422;2022-12-18T05:38:27;10.90;;;7.13;;
67193;SDS011;54121;53.508;49.422;2022-12-18T05:40:54;9.35;;;6.78;;
67193;SDS011;54121;53.508;49.422;2022-12-18T05:43:22;10.38;;;7.68;;
67193;SDS011;54121;53.508;49.422;2022-12-18T05:45:49;10.25;;;7.15;;
67193;SDS011;54121;53.508;49.422;2022-12-18T05:48:17;10.43;;;6.97;;
67193;SDS011;54121;53.508;49.422;2022-12-18T05:50:44;8.80;;;5.28;;
67193;SDS011;54121;53.508;49.422;2022-12-18T05:53:12;9.90;;;8.43;;
67193;SDS011;54121;53.508;49.422;2022-12-18T05:55:41;11.43;;;8.85;;
67193;SDS011;54121;53.508;49.422;2022-12-18T05:58:09;15.10;;;8.95;;
67193;SDS011;54121;53.508;49.422;2022-12-18T06:00:39;14.30;;;11.48;;
67193;SDS011;54121;53.508;49.422;2022-12-18T06:03:07;17.60;;;12.15;;
67193;SDS011;54121;53.508;49.422;2022-12-18T06:05:36;16.20;;;11.57;;
67193;SDS011;54121;53.508;49.422;2022-12-18T06:08:04;17.67;;;14.32;;
67193;SDS011;54121;53.508;49.422;2022-12-18T06:10:31;17.00;;;13.20;;
67193;SDS011;54121;53.508;49.422;2022-12-18T06:12:58;18.40;;;13.55;;
67193;SDS011;54121;53.508;49.422;2022-12-18T06:15:24;23.20;;;16.33;;
67193;SDS011;54121;53.508;49.422;2022-12-18T06:17:51;21.48;;;14.32;;
67193;SDS011;54121;53.508;49.422;2022-12-18T06:20:17;23.10;;;14.40;;
67193;SDS011;54121;53.508;49.422;2022-12-18T06:22:44;29.27;;;21.13;;
67193;SDS011;54121;53.508;49.422;2022-12-18T06:25:11;28.30;;;21.90;;
67193;SDS011;54121;53.508;49.422;2022-12-18T06:27:37;30.10;;;21.13;;
67193;SDS011;54121;53.508;49.422;2022-12-18T06:30:04;29.80;;;20.80;;
67193;SDS011;54121;53.508;49.422;2022-12-18T06:32:31;40.08;;;23.25;;
67193;SDS011;54121;53.508;49.422;2022-12-18T06:34:57;36.78;;;25.55;;
67193;SDS011;54121;53.508;49.422;2022-12-18T06:37:24;40.17;;;27.85;;
67193;SDS011;54121;53.508;49.422;2022-12-18T06:39:54;42.55;;;28.27;;
67193;SDS011;54121;53.508;49.422;2022-12-18T06:42:22;38.35;;;25.23;;
67193;SDS011;54121;53.508;49.422;2022-12-18T06:44:50;37.95;;;27.00;;
67193;SDS011;54121;53.508;49.422;2022-12-18T06:47:17;42.20;;;28.63;;
67193;SDS011;54121;53.508;49.422;2022-12-18T06:49:44;38.45;;;25.95;;
67193;SDS011;54121;53.508;49.422;2022-12-18T06:52:10;35.40;;;21.63;;
67193;SDS011;54121;53.508;49.422;2022-12-18T06:54:37;33.70;;;21.52;;
67193;SDS011;54121;53.508;49.422;2022-12-18T06:57:03;48.92;;;29.75;;
67193;SDS011;54121;53.508;49.422;2022-12-18T06:59:30;41.63;;;26.50;;
67193;SDS011;54121;53.508;49.422;2022-12-18T07:01:56;39.15;;;23.17;;
67193;SDS011;54121;53.508;49.422;2022-12-18T07:04:27;42.08;;;27.65;;
67193;SDS011;54121;53.508;49.422;2022-12-18T07:06:54;45.85;;;27.60;;
67193;SDS011;54121;53.508;49.422;2022-12-18T07:09:21;34.95;;;24.10;;
67193;SDS011;54121;53.508;49.422;2022-12-18T07:11:48;35.33;;;23.02;;
67193;SDS011;54121;53.508;49.422;2022-12-18T07:14:14;36.38;;;20.48;;
67193;SDS011;54121;53.508;49.422;2022-12-18T07:16:40;40.63;;;23.73;;
67193;SDS011;54121;53.508;49.422;2022-12-18T07:19:07;48.05;;;30.77;;
67193;SDS011;54121;53.508;49.422;2022-12-18T07:21:33;39.20;;;22.98;;
67193;SDS011;54121;53.508;49.422;2022-12-18T07:24:00;44.55;;;29.50;;
67193;SDS011;54121;53.508;49.422;2022-12-18T07:26:26;41.60;;;27.23;;
67193;SDS011;54121;53.508;49.422;2022-12-18T07:28:56;44.75;;;28.63;;
67193;SDS011;54121;53.508;49.422;2022-12-18T07:31:23;43.53;;;24.42;;
67193;SDS011;54121;53.508;49.422;2022-12-18T07:33:50;44.65;;;23.08;;
67193;SDS011;54121;53.508;49.422;2022-12-18T07:36:17;41.63;;;29.38;;
67193;SDS011;54121;53.508;49.422;2022-12-18T07:38:46;46.47;;;27.90;;
67193;SDS011;54121;53.508;49.422;2022-12-18T07:41:14;47.95;;;29.52;;
67193;SDS011;54121;53.508;49.422;2022-12-18T07:43:41;51.15;;;30.00;;
67193;SDS011;54121;53.508;49.422;2022-12-18T07:46:08;47.95;;;30.90;;
67193;SDS011;54121;53.508;49.422;2022-12-18T07:48:35;43.38;;;30.15;;
67193;SDS011;54121;53.508;49.422;2022-12-18T07:51:02;48.90;;;27.70;;
67193;SDS011;54121;53.508;49.422;2022-12-18T07:53:30;44.15;;;27.25;;
67193;SDS011;54121;53.508;49.422;2022-12-18T07:55:57;47.92;;;28.88;;
67193;SDS011;54121;53.508;49.422;2022-12-18T07:58:25;48.53;;;28.05;;
67193;SDS011;54121;53.508;49.422;2022-12-18T08:00:52;44.10;;;24.65;;
67193;SDS011;54121;53.508;49.422;2022-12-18T08:03:18;44.63;;;26.90;;
67193;SDS011;54121;53.508;49.422;2022-12-18T08:05:45;45.05;;;27.92;;
67193;SDS011;54121;53.508;49.422;2022-12-18T08:08:11;40.90;;;22.83;;
67193;SDS011;54121;53.508;49.422;2022-12-18T08:10:38;37.53;;;24.10;;
67193;SDS011;54121;53.508;49.422;2022-12-18T08:13:05;44.00;;;27.23;;
67193;SDS011;54121;53.508;49.422;2022-12-18T08:15:31;43.53;;;26.10;;
67193;SDS011;54121;53.508;49.422;2022-12-18T08:17:58;47.70;;;29.88;;
67193;SDS011;54121;53.508;49.422;2022-12-18T08:20:24;43.22;;;27.15;;
67193;SDS011;54121;53.508;49.422;2022-12-18T08:22:51;39.97;;;27.33;;
67193;SDS011;54121;53.508;49.422;2022-12-18T08:25:18;37.70;;;21.10;;
67193;SDS011;54121;53.508;49.422;2022-12-18T08:27:44;36.85;;;23.20;;
67193;SDS011;54121;53.508;49.422;2022-12-18T08:30:11;35.15;;;24.05;;
67193;SDS011;54121;53.508;49.422;2022-12-18T08:32:38;39.72;;;27.35;;
67193;SDS011;54121;53.508;49.422;2022-12-18T08:35:04;33.47;;;25.08;;
67193;SDS011;54121;53.508;49.422;2022-12-18T08:37:31;35.15;;;25.30;;
67193;SDS011;54121;53.508;49.422;2022-12-18T08:39:58;35.03;;;25.95;;
67193;SDS011;54121;53.508;49.422;2022-12-18T08:42:24;32.17;;;20.02;;
67193;SDS011;54121;53.508;49.422;2022-12-18T08:45:09;35.20;;;23.27;;
67193;SDS011;54121;53.508;49.422;2022-12-18T08:47:39;30.75;;;22.75;;
67193;SDS011;54121;53.508;49.422;2022-12-18T08:50:06;41.67;;;25.73;;
67193;SDS011;54121;53.508;49.422;2022-12-18T08:52:33;35.58;;;24.35;;
67193;SDS011;54121;53.508;49.422;2022-12-18T08:54:59;34.03;;;23.20;;
67193;SDS011;54121;53.508;49.422;2022-12-18T08:57:26;36.53;;;25.10;;
67193;SDS011;54121;53.508;49.422;2022-12-18T08:59:52;32.08;;;22.58;;
67193;SDS011;54121;53.508;49.422;2022-12-18T09:02:19;31.75;;;20.42;;
67193;SDS011;54121;53.508;49.422;2022-12-18T09:04:51;29.23;;;18.17;;
67193;SDS011;54121;53.508;49.422;2022-12-18T09:08:02;30.65;;;21.70;;
67193;SDS011;54121;53.508;49.422;2022-12-18T09:10:29;27.52;;;19.55;;
67193;SDS011;54121;53.508;49.422;2022-12-18T09:12:55;24.98;;;17.33;;
67193;SDS011;54121;53.508;49.422;2022-12-18T09:15:22;30.63;;;23.23;;
67193;SDS011;54121;53.508;49.422;2022-12-18T09:17:49;26.50;;;18.27;;
67193;SDS011;54121;53.508;49.422;2022-12-18T09:20:16;24.73;;;19.50;;
67193;SDS011;54121;53.508;49.422;2022-12-18T09:22:42;25.63;;;18.95;;
67193;SDS011;54121;53.508;49.422;2022-12-18T09:25:09;24.60;;;18.90;;
67193;SDS011;54121;53.508;49.422;2022-12-18T09:27:35;26.23;;;17.98;;
67193;SDS011;54121;53.508;49.422;2022-12-18T09:30:02;25.75;;;16.88;;
67193;SDS011;54121;53.508;49.422;2022-12-18T09:32:29;19.30;;;12.93;;
67193;SDS011;54121;53.508;49.422;2022-12-18T09:34:55;18.90;;;14.60;;
67193;SDS011;54121;53.508;49.422;2022-12-18T09:37:22;24.40;;;15.75;;
67193;SDS011;54121;53.508;49.422;2022-12-18T09:39:48;23.77;;;17.10;;
67193;SDS011;54121;53.508;49.422;2022-12-18T09:42:20;19.25;;;13.45;;
67193;SDS011;54121;53.508;49.422;2022-12-18T09:44:51;23.08;;;15.18;;
67193;SDS011;54121;53.508;49.422;2022-12-18T09:47:26;19.88;;;15.50;;
67193;SDS011;54121;53.508;49.422;2022-12-18T09:50:02;22.80;;;15.43;;
67193;SDS011;54121;53.508;49.422;2022-12-18T09:52:43;23.65;;;17.83;;
67193;SDS011;54121;53.508;49.422;2022-12-18T09:55:17;21.83;;;15.98;;
67193;SDS011;54121;53.508;49.422;2022-12-18T09:57:52;19.40;;;13.70;;
67193;SDS011;54121;53.508;49.422;2022-12-18T10:00:24;20.02;;;14.07;;
67193;SDS011;54121;53.508;49.422;2022-12-18T10:02:52;20.55;;;14.52;;
67193;SDS011;54121;53.508;49.422;2022-12-18T10:05:32;22.23;;;15.13;;
67193;SDS011;54121;53.508;49.422;2022-12-18T10:08:05;20.83;;;14.13;;
67193;SDS011;54121;53.508;49.422;2022-12-18T10:10:45;18.35;;;13.13;;
67193;SDS011;54121;53.508;49.422;2022-12-18T10:16:08;19.88;;;15.55;;
67193;SDS011;54121;53.508;49.422;2022-12-18T10:21:30;21.95;;;14.77;;
67193;SDS011;54121;53.508;49.422;2022-12-18T10:27:04;31.05;;;23.55;;
67193;SDS011;54121;53.508;49.422;2022-12-18T10:29:44;28.38;;;19.80;;
67193;SDS011;54121;53.508;49.422;2022-12-18T10:32:32;33.35;;;23.70;;
67193;SDS011;54121;53.508;49.422;2022-12-18T10:34:58;22.48;;;16.70;;
67193;SDS011;54121;53.508;49.422;2022-12-18T10:37:25;26.33;;;19.27;;
67193;SDS011;54121;53.508;49.422;2022-12-18T10:42:35;22.38;;;18.35;;
67193;SDS011;54121;53.508;49.422;2022-12-18T10:45:05;24.35;;;16.98;;
67193;SDS011;54121;53.508;49.422;2022-12-18T10:47:49;24.98;;;17.30;;
67193;SDS011;54121;53.508;49.422;2022-12-18T10:50:19;22.00;;;16.42;;
67193;SDS011;54121;53.508;49.422;2022-12-18T10:52:59;16.10;;;12.40;;
67193;SDS011;54121;53.508;49.422;2022-12-18T10:55:34;20.55;;;15.73;;
67193;SDS011;54121;53.508;49.422;2022-12-18T11:01:45;15.57;;;12.60;;
67193;SDS011;54121;53.508;49.422;2022-12-18T11:06:24;12.25;;;8.35;;
67193;SDS011;54121;53.508;49.422;2022-12-18T11:09:02;14.10;;;10.93;;
67193;SDS011;54121;53.508;49.422;2022-12-18T11:11:30;10.55;;;8.48;;
67193;SDS011;54121;53.508;49.422;2022-12-18T11:14:32;12.02;;;7.35;;
67193;SDS011;54121;53.508;49.422;2022-12-18T11:16:54;16.75;;;12.98;;
67193;SDS011;54121;53.508;49.422;2022-12-18T11:19:26;20.73;;;14.88;;
67193;SDS011;54121;53.508;49.422;2022-12-18T11:21:59;18.10;;;13.43;;
67193;SDS011;54121;53.508;49.422;2022-12-18T11:27:00;18.83;;;13.65;;
67193;SDS011;54121;53.508;49.422;2022-12-18T11:29:33;23.05;;;16.95;;
67193;SDS011;54121;53.508;49.422;2022-12-18T11:34:52;21.48;;;16.40;;
67193;SDS011;54121;53.508;49.422;2022-12-18T11:37:23;25.65;;;19.77;;
67193;SDS011;54121;53.508;49.422;2022-12-18T11:44:57;27.52;;;19.35;;
67193;SDS011;54121;53.508;49.422;2022-12-18T11:47:30;35.08;;;26.13;;
67193;SDS011;54121;53.508;49.422;2022-12-18T11:50:19;32.78;;;25.98;;
67193;SDS011;54121;53.508;49.422;2022-12-18T11:52:51;38.03;;;27.67;;
67193;SDS011;54121;53.508;49.422;2022-12-18T11:55:27;38.22;;;22.25;;
67193;SDS011;54121;53.508;49.422;2022-12-18T12:03:55;37.15;;;26.33;;
67193;SDS011;54121;53.508;49.422;2022-12-18T12:15:03;34.17;;;24.10;;
67193;SDS011;54121;53.508;49.422;2022-12-18T12:17:53;35.13;;;26.15;;
67193;SDS011;54121;53.508;49.422;2022-12-18T12:31:57;35.00;;;27.90;;
67193;SDS011;54121;53.508;49.422;2022-12-18T12:35:07;33.92;;;26.92;;
67193;SDS011;54121;53.508;49.422;2022-12-18T12:40:36;25.60;;;19.40;;
67193;SDS011;54121;53.508;49.422;2022-12-18T12:43:30;27.08;;;20.73;;
67193;SDS011;54121;53.508;49.422;2022-12-18T12:46:12;28.90;;;22.45;;
67193;SDS011;54121;53.508;49.422;2022-12-18T12:48:48;25.13;;;20.23;;
67193;SDS011;54121;53.508;49.422;2022-12-18T12:51:21;21.77;;;18.17;;
67193;SDS011;54121;53.508;49.422;2022-12-18T12:53:48;25.55;;;17.95;;
67193;SDS011;54121;53.508;49.422;2022-12-18T12:56:18;23.45;;;18.67;;
67193;SDS011;54121;53.508;49.422;2022-12-18T13:01:36;19.83;;;14.45;;
67193;SDS011;54121;53.508;49.422;2022-12-18T13:04:21;19.88;;;15.02;;
67193;SDS011;54121;53.508;49.422;2022-12-18T13:07:05;29.15;;;21.38;;
67193;SDS011;54121;53.508;49.422;2022-12-18T13:12:52;21.13;;;14.32;;
67193;SDS011;54121;53.508;49.422;2022-12-18T13:15:41;32.65;;;25.55;;
67193;SDS011;54121;53.508;49.422;2022-12-18T13:20:37;21.95;;;14.95;;
67193;SDS011;54121;53.508;49.422;2022-12-18T13:23:19;20.10;;;15.73;;
67193;SDS011;54121;53.508;49.422;2022-12-18T13:28:20;26.48;;;16.38;;
67193;SDS011;54121;53.508;49.422;2022-12-18T13:30:59;22.67;;;17.63;;
67193;SDS011;54121;53.508;49.422;2022-12-18T13:38:39;16.23;;;12.13;;
67193;SDS011;54121;53.508;49.422;2022-12-18T13:43:52;17.45;;;13.82;;
67193;SDS011;54121;53.508;49.422;2022-12-18T13:46:29;20.25;;;15.23;;
67193;SDS011;54121;53.508;49.422;2022-12-18T13:51:46;15.68;;;13.70;;
67193;SDS011;54121;53.508;49.422;2022-12-18T13:56:51;14.10;;;11.55;;
67193;SDS011;54121;53.508;49.422;2022-12-18T13:59:19;16.08;;;13.65;;
67193;SDS011;54121;53.508;49.422;2022-12-18T14:01:57;17.48;;;14.43;;
67193;SDS011;54121;53.508;49.422;2022-12-18T14:04:30;14.38;;;12.07;;
67193;SDS011;54121;53.508;49.422;2022-12-18T14:09:29;14.75;;;11.93;;
67193;SDS011;54121;53.508;49.422;2022-12-18T14:12:00;11.93;;;8.50;;
67193;SDS011;54121;53.508;49.422;2022-12-18T14:14:47;15.55;;;12.90;;
67193;SDS011;54121;53.508;49.422;2022-12-18T14:17:15;15.00;;;11.60;;
67193;SDS011;54121;53.508;49.422;2022-12-18T14:19:43;17.05;;;14.63;;
67193;SDS011;54121;53.508;49.422;2022-12-18T14:22:15;18.05;;;12.25;;
67193;SDS011;54121;53.508;49.422;2022-12-18T14:24:44;15.57;;;13.27;;
67193;SDS011;54121;53.508;49.422;2022-12-18T14:27:24;17.05;;;13.40;;
67193;SDS011;54121;53.508;49.422;2022-12-18T14:29:51;17.27;;;14.52;;
67193;SDS011;54121;53.508;49.422;2022-12-18T14:32:18;16.13;;;14.15;;
67193;SDS011;54121;53.508;49.422;2022-12-18T14:34:47;17.65;;;14.85;;
67193;SDS011;54121;53.508;49.422;2022-12-18T14:37:17;14.05;;;9.98;;
67193;SDS011;54121;53.508;49.422;2022-12-18T14:40:00;18.10;;;15.48;;
67193;SDS011;54121;53.508;49.422;2022-12-18T14:42:29;15.23;;;13.18;;
67193;SDS011;54121;53.508;49.422;2022-12-18T14:48:05;19.80;;;14.98;;
67193;SDS011;54121;53.508;49.422;2022-12-18T14:50:43;17.15;;;13.73;;
67193;SDS011;54121;53.508;49.422;2022-12-18T14:53:20;17.90;;;14.45;;
67193;SDS011;54121;53.508;49.422;2022-12-18T14:55:49;14.63;;;11.63;;
67193;SDS011;54121;53.508;49.422;2022-12-18T14:58:16;18.23;;;15.02;;
67193;SDS011;54121;53.508;49.422;2022-12-18T15:00:43;16.02;;;14.10;;
67193;SDS011;54121;53.508;49.422;2022-12-18T15:03:12;15.38;;;12.75;;
67193;SDS011;54121;53.508;49.422;2022-12-18T15:05:45;17.92;;;13.02;;
67193;SDS011;54121;53.508;49.422;2022-12-18T15:08:29;13.85;;;12.02;;
67193;SDS011;54121;53.508;49.422;2022-12-18T15:11:22;12.10;;;9.13;;
67193;SDS011;54121;53.508;49.422;2022-12-18T15:13:53;12.32;;;9.70;;
67193;SDS011;54121;53.508;49.422;2022-12-18T15:16:20;9.45;;;8.50;;
67193;SDS011;54121;53.508;49.422;2022-12-18T15:18:46;8.20;;;6.97;;
67193;SDS011;54121;53.508;49.422;2022-12-18T15:21:19;10.23;;;8.50;;
67193;SDS011;54121;53.508;49.422;2022-12-18T15:23:48;7.75;;;5.43;;
67193;SDS011;54121;53.508;49.422;2022-12-18T15:26:19;6.45;;;5.18;;
67193;SDS011;54121;53.508;49.422;2022-12-18T15:28:56;6.60;;;5.88;;
67193;SDS011;54121;53.508;49.422;2022-12-18T15:31:34;6.20;;;5.60;;
67193;SDS011;54121;53.508;49.422;2022-12-18T15:34:11;5.65;;;4.28;;
67193;SDS011;54121;53.508;49.422;2022-12-18T15:36:43;4.93;;;3.97;;
67193;SDS011;54121;53.508;49.422;2022-12-18T15:39:11;5.15;;;4.07;;
67193;SDS011;54121;53.508;49.422;2022-12-18T15:41:38;4.18;;;3.42;;
67193;SDS011;54121;53.508;49.422;2022-12-18T15:44:38;5.82;;;4.35;;
67193;SDS011;54121;53.508;49.422;2022-12-18T15:46:58;4.88;;;4.38;;
67193;SDS011;54121;53.508;49.422;2022-12-18T15:49:24;4.05;;;3.65;;
67193;SDS011;54121;53.508;49.422;2022-12-18T15:51:52;5.60;;;4.38;;
67193;SDS011;54121;53.508;49.422;2022-12-18T15:54:23;5.85;;;5.28;;
67193;SDS011;54121;53.508;49.422;2022-12-18T15:57:12;6.20;;;5.55;;
67193;SDS011;54121;53.508;49.422;2022-12-18T15:59:51;6.30;;;4.75;;
67193;SDS011;54121;53.508;49.422;2022-12-18T16:02:20;7.75;;;6.55;;
67193;SDS011;54121;53.508;49.422;2022-12-18T16:04:48;6.25;;;5.22;;
67193;SDS011;54121;53.508;49.422;2022-12-18T16:07:16;8.63;;;7.20;;
67193;SDS011;54121;53.508;49.422;2022-12-18T16:09:43;8.63;;;6.95;;
67193;SDS011;54121;53.508;49.422;2022-12-18T16:12:17;7.03;;;5.80;;
67193;SDS011;54121;53.508;49.422;2022-12-18T16:14:46;10.15;;;8.80;;
67193;SDS011;54121;53.508;49.422;2022-12-18T16:17:13;10.43;;;8.68;;
67193;SDS011;54121;53.508;49.422;2022-12-18T16:19:41;12.93;;;10.18;;
67193;SDS011;54121;53.508;49.422;2022-12-18T16:22:14;13.15;;;11.38;;
67193;SDS011;54121;53.508;49.422;2022-12-18T16:24:47;14.75;;;12.15;;
67193;SDS011;54121;53.508;49.422;2022-12-18T16:27:13;13.45;;;10.40;;
67193;SDS011;54121;53.508;49.422;2022-12-18T16:29:40;17.13;;;11.15;;
67193;SDS011;54121;53.508;49.422;2022-12-18T16:32:06;12.57;;;10.23;;
67193;SDS011;54121;53.508;49.422;2022-12-18T16:37:04;12.85;;;9.00;;
67193;SDS011;54121;53.508;49.422;2022-12-18T16:39:33;21.73;;;15.85;;